Time;durP1;ratioP1;P1;durP2;ratioP2;P2;SDS_P1;SDS_P2;PMS_P1;PMS_P2;Temp;Humidity;BMP_temperature;BMP_pressure;BME280_temperature;BME280_humidity;BME280_pressure;Samples;Min_cycle;Max_cycle;Signal;HPM_P1;HPM_P2
2023/10/30 09:08:51;;;;;;;0.87;0.70;;;;;;;19.42;83.22;97796.34;5190207;27;20583;-88
2023/10/30 09:11:18;;;;;;;1.00;0.90;;;;;;;19.59;80.10;97786.38;5153637;27;38709;-92
2023/10/30 09:13:46;;;;;;;0.73;0.60;;;;;;;19.62;78.84;97784.16;5136771;27;41671;-91
2023/10/30 09:16:14;;;;;;;1.13;0.70;;;;;;;19.52;80.19;97778.19;5153861;27;41680;-91
2023/10/30 09:18:42;;;;;;;1.03;0.80;;;;;;;19.39;79.06;97791.34;5136987;27;41028;-89
2023/10/30 09:21:10;;;;;;;1.73;0.80;;;;;;;19.09;77.94;97792.16;5137476;27;40693;-91
2023/10/30 09:23:37;;;;;;;0.80;0.57;;;;;;;19.01;77.18;97799.25;5154057;27;40830;-91
2023/10/30 09:26:06;;;;;;;0.67;0.50;;;;;;;18.81;77.49;97781.88;5136555;27;44395;-91
2023/10/30 09:28:33;;;;;;;1.60;0.70;;;;;;;18.76;78.35;97778.06;5136483;27;43547;-90
2023/10/30 09:31:01;;;;;;;2.10;0.60;;;;;;;18.78;74.08;97793.00;5153876;27;42077;-90
2023/10/30 09:33:28;;;;;;;1.03;0.60;;;;;;;19.27;72.13;97779.34;5136245;27;40689;-91
2023/10/30 09:35:56;;;;;;;0.83;0.60;;;;;;;19.79;71.24;97810.88;5136495;27;41889;-91
2023/10/30 09:38:24;;;;;;;1.83;0.50;;;;;;;19.65;72.23;97802.63;5153770;27;42216;-90
2023/10/30 09:40:59;;;;;;;1.30;0.80;;;;;;;19.80;70.26;97789.22;5135870;27;38931;-91
2023/10/30 09:43:29;;;;;;;1.63;0.67;;;;;;;20.04;70.82;97812.38;5151971;27;41657;-91
2023/10/30 09:45:59;;;;;;;2.87;0.67;;;;;;;20.21;68.90;97824.66;5135592;27;44455;-90
2023/10/30 09:48:28;;;;;;;0.60;0.60;;;;;;;20.13;68.46;97827.44;5134908;27;41250;-88
2023/10/30 09:50:56;;;;;;;1.33;0.60;;;;;;;20.01;69.98;97836.94;5135292;27;38958;-88
2023/10/30 09:53:25;;;;;;;1.27;0.70;;;;;;;19.99;71.20;97815.63;5134799;27;40814;-88
2023/10/30 09:55:55;;;;;;;1.83;1.37;;;;;;;20.29;71.12;97847.94;5151977;27;44492;-87
2023/10/30 09:58:23;;;;;;;1.97;1.57;;;;;;;20.58;69.67;97849.91;5134234;27;42697;-88
2023/10/30 10:00:52;;;;;;;0.70;0.60;;;;;;;20.75;69.34;97846.03;5134464;27;40459;-90
2023/10/30 10:03:21;;;;;;;4.37;0.90;;;;;;;21.13;66.89;97847.59;5134520;27;43666;-89
2023/10/30 10:05:56;;;;;;;0.37;0.37;;;;;;;21.96;66.78;97842.78;5151929;27;42842;-90
2023/10/30 10:08:24;;;;;;;1.33;0.77;;;;;;;23.01;61.20;97865.25;5134110;27;42567;-89
2023/10/30 10:10:55;;;;;;;1.57;0.70;;;;;;;23.69;57.98;97868.94;5134353;27;40559;-88
2023/10/30 10:13:23;;;;;;;0.80;0.60;;;;;;;24.48;53.56;97869.06;5135706;27;40894;-88
2023/10/30 10:15:53;;;;;;;1.03;0.80;;;;;;;25.74;54.20;97873.22;5135580;27;41707;-90
2023/10/30 10:18:25;;;;;;;0.73;0.57;;;;;;;26.44;50.26;97870.53;5131347;27;43651;-89
2023/10/30 10:21:00;;;;;;;1.07;0.63;;;;;;;28.02;47.22;97887.91;5139423;27;38917;-89
2023/10/30 10:23:31;;;;;;;0.53;0.53;;;;;;;28.78;45.37;97887.22;5121819;27;40716;-88
2023/10/30 10:25:59;;;;;;;0.83;0.60;;;;;;;29.00;44.17;97867.53;5121520;27;44482;-90
2023/10/30 10:28:28;;;;;;;0.67;0.60;;;;;;;29.67;43.71;97866.84;5121181;27;43680;-89
2023/10/30 10:30:57;;;;;;;0.60;0.60;;;;;;;29.67;43.01;97864.13;5121813;27;39077;-89
2023/10/30 10:33:27;;;;;;;0.60;0.60;;;;;;;30.06;43.41;97868.97;5121289;27;42268;-88
2023/10/30 10:35:55;;;;;;;0.53;0.53;;;;;;;30.13;43.06;97854.13;5121485;27;42828;-88
2023/10/30 10:38:23;;;;;;;1.20;0.80;;;;;;;30.66;40.36;97869.28;5138729;27;43139;-89
2023/10/30 10:40:52;;;;;;;0.53;0.47;;;;;;;31.36;38.75;97874.19;5120786;27;38501;-89
2023/10/30 10:43:21;;;;;;;0.50;0.50;;;;;;;32.21;37.78;97875.53;5136435;27;41090;-86
2023/10/30 10:45:49;;;;;;;1.02;0.80;;;;;;;33.11;35.33;97891.97;5120797;27;42866;-87
2023/10/30 10:48:19;;;;;;;1.40;0.68;;;;;;;33.64;35.64;97883.75;5119716;27;44396;-88
2023/10/30 10:50:47;;;;;;;0.60;0.60;;;;;;;33.35;34.25;97883.34;5137310;27;41348;-87
2023/10/30 10:53:19;;;;;;;1.07;0.60;;;;;;;33.05;34.84;97893.00;5119587;27;41908;-86
2023/10/30 10:55:48;;;;;;;0.63;0.63;;;;;;;32.25;36.45;97858.31;5136900;27;43030;-87
2023/10/30 10:58:20;;;;;;;2.37;0.70;;;;;;;31.47;37.20;97859.56;5119680;27;41948;-86
2023/10/30 11:00:49;;;;;;;1.43;0.80;;;;;;;30.60;36.94;97840.19;5119995;27;40445;-89
2023/10/30 11:03:18;;;;;;;2.57;0.83;;;;;;;30.01;38.97;97809.66;5136804;27;41889;-90
2023/10/30 11:05:48;;;;;;;0.60;0.60;;;;;;;29.70;39.72;97804.66;5119006;27;42118;-89
2023/10/30 11:08:34;;;;;;;1.23;0.63;;;;;;;29.57;39.15;97792.13;5118590;27;41027;-88
2023/10/30 11:11:11;;;;;;;1.60;0.70;;;;;;;29.72;40.34;97789.72;5119487;27;40841;-87
2023/10/30 11:13:47;;;;;;;1.63;0.70;;;;;;;30.03;39.43;97790.31;5135027;27;41723;-89
2023/10/30 11:16:21;;;;;;;0.50;0.50;;;;;;;30.21;39.10;97771.78;5137412;27;42361;-89
2023/10/30 11:18:53;;;;;;;0.60;0.50;;;;;;;30.61;37.84;97773.53;5120914;27;42126;-89
2023/10/30 11:21:26;;;;;;;1.13;0.60;;;;;;;31.43;37.10;97765.34;5120038;27;40294;-89
2023/10/30 11:23:55;;;;;;;0.70;0.60;;;;;;;32.28;37.67;97770.09;5120538;27;42202;-90
2023/10/30 11:26:40;;;;;;;0.70;0.50;;;;;;;32.70;35.45;97780.28;5120275;27;41975;-89
2023/10/30 11:29:10;;;;;;;1.10;0.60;;;;;;;32.74;34.68;97782.28;5120101;27;43398;-87
2023/10/30 11:31:55;;;;;;;0.70;0.50;;;;;;;32.92;33.50;97778.25;5136032;27;38878;-87
2023/10/30 11:34:32;;;;;;;0.50;0.43;;;;;;;32.88;32.32;97785.38;5134578;27;42765;-89
2023/10/30 11:37:04;;;;;;;0.40;0.40;;;;;;;32.85;33.52;97761.22;5120356;27;41743;-92
2023/10/30 11:39:36;;;;;;;0.43;0.40;;;;;;;33.23;32.98;97764.69;5120673;27;40886;-88
2023/10/30 11:42:04;;;;;;;0.83;0.40;;;;;;;32.64;32.81;97770.38;5135226;27;40365;-88
2023/10/30 11:44:32;;;;;;;0.57;0.50;;;;;;;31.99;33.23;97746.81;5119057;27;43525;-86
2023/10/30 11:47:00;;;;;;;1.17;0.63;;;;;;;31.43;33.59;97721.56;5118521;27;43784;-87
2023/10/30 11:49:33;;;;;;;0.73;0.60;;;;;;;30.98;34.22;97714.47;5119167;27;41113;-88
2023/10/30 11:52:11;;;;;;;0.40;0.40;;;;;;;30.59;35.25;97730.06;5119166;27;39102;-90
2023/10/30 11:54:41;;;;;;;2.20;0.63;;;;;;;30.15;35.25;97704.50;5136410;27;43553;-89
2023/10/30 11:57:09;;;;;;;0.40;0.40;;;;;;;29.99;36.25;97678.03;5150191;27;43088;-89
2023/10/30 11:59:37;;;;;;;2.57;0.50;;;;;;;29.84;37.22;97681.28;5130488;27;42921;-88
2023/10/30 12:02:06;;;;;;;1.40;0.60;;;;;;;29.77;36.03;97701.66;5119148;27;39148;-90
2023/10/30 12:04:35;;;;;;;0.93;0.80;;;;;;;29.36;36.49;97657.22;5118930;27;40842;-87
2023/10/30 12:07:04;;;;;;;0.50;0.40;;;;;;;29.45;35.91;97688.53;5118172;27;43270;-88
2023/10/30 12:09:31;;;;;;;0.50;0.50;;;;;;;29.02;38.05;97688.22;5118602;27;42166;-89
2023/10/30 12:11:59;;;;;;;0.50;0.50;;;;;;;28.20;39.13;97658.34;5118703;27;39311;-89
2023/10/30 12:14:29;;;;;;;1.17;0.50;;;;;;;27.52;39.78;97656.09;5119944;27;42501;-87
2023/10/30 12:16:58;;;;;;;2.97;0.90;;;;;;;26.78;40.76;97650.00;5136858;27;41845;-89
2023/10/30 12:19:26;;;;;;;1.10;0.57;;;;;;;26.13;42.44;97638.78;5137289;27;41178;-85
2023/10/30 12:21:55;;;;;;;1.77;0.97;;;;;;;25.54;42.62;97643.88;5136283;27;40479;-90
2023/10/30 12:24:25;;;;;;;0.90;0.60;;;;;;;24.98;43.73;97636.53;5134523;27;40625;-89
2023/10/30 12:26:52;;;;;;;0.47;0.40;;;;;;;24.55;44.80;97623.59;5116861;27;43099;-88
2023/10/30 12:29:22;;;;;;;1.90;0.50;;;;;;;24.09;46.09;97599.38;5117968;27;41301;-91
2023/10/30 12:31:51;;;;;;;0.90;0.60;;;;;;;23.72;46.15;97592.78;5117313;27;40176;-90
2023/10/30 12:34:24;;;;;;;1.23;0.50;;;;;;;23.42;47.72;97581.53;5117651;27;41179;-91
2023/10/30 12:36:52;;;;;;;1.70;0.50;;;;;;;22.91;47.67;97540.78;5117690;27;43384;-88
2023/10/30 12:39:22;;;;;;;0.60;0.40;;;;;;;22.72;48.52;97546.97;5135199;27;42483;-88
2023/10/30 12:41:53;;;;;;;0.40;0.40;;;;;;;22.54;48.61;97558.31;5117375;27;40864;-89
2023/10/30 12:44:21;;;;;;;0.67;0.60;;;;;;;22.19;49.50;97527.91;5119673;27;42397;-88
2023/10/30 12:46:48;;;;;;;3.33;0.60;;;;;;;21.96;49.60;97522.81;5117718;27;43597;-88
2023/10/30 12:49:17;;;;;;;0.53;0.53;;;;;;;21.67;50.22;97496.94;5118424;27;41344;-89
2023/10/30 12:51:45;;;;;;;1.70;0.60;;;;;;;21.72;51.74;97516.06;5117476;27;40986;-88
2023/10/30 12:54:12;;;;;;;0.47;0.40;;;;;;;21.44;51.71;97497.22;5118214;27;42132;-90
2023/10/30 12:56:41;;;;;;;1.00;0.63;;;;;;;21.47;52.33;97521.09;5117586;27;43414;-89
2023/10/30 12:59:08;;;;;;;1.00;0.80;;;;;;;21.32;53.32;97503.34;5117532;27;43059;-91
2023/10/30 13:01:36;;;;;;;1.27;0.80;;;;;;;21.26;53.58;97494.22;5117729;27;40259;-88
2023/10/30 13:04:04;;;;;;;0.70;0.67;;;;;;;21.04;53.81;97462.94;5117123;27;40823;-87
2023/10/30 13:06:31;;;;;;;0.73;0.70;;;;;;;20.96;54.09;97474.69;5117300;27;44603;-87
2023/10/30 13:08:59;;;;;;;0.93;0.60;;;;;;;20.68;54.21;97446.91;5116756;27;42806;-88
2023/10/30 13:11:26;;;;;;;0.80;0.80;;;;;;;20.55;54.21;97441.41;5117964;27;39074;-90
2023/10/30 13:13:55;;;;;;;0.40;0.40;;;;;;;20.54;54.66;97453.19;5118315;27;42348;-88
2023/10/30 13:16:23;;;;;;;0.70;0.50;;;;;;;20.49;55.46;97455.66;5118590;27;41314;-89
2023/10/30 13:18:51;;;;;;;0.90;0.67;;;;;;;20.36;55.32;97445.59;5135543;27;43247;-90
2023/10/30 13:21:18;;;;;;;0.70;0.43;;;;;;;20.33;56.26;97457.53;5135567;27;39233;-87
2023/10/30 13:23:46;;;;;;;1.07;0.60;;;;;;;20.18;56.59;97424.47;5118385;27;42518;-90
2023/10/30 13:26:13;;;;;;;0.60;0.60;;;;;;;20.11;57.39;97417.38;5118231;27;42059;-87
2023/10/30 13:28:41;;;;;;;0.83;0.63;;;;;;;19.90;57.81;97385.97;5117835;27;40942;-88
2023/10/30 13:31:10;;;;;;;0.40;0.40;;;;;;;19.95;58.50;97396.94;5118794;27;39609;-86
2023/10/30 13:33:38;;;;;;;0.93;0.60;;;;;;;19.90;58.30;97402.09;5135348;27;41552;-87
2023/10/30 13:36:06;;;;;;;1.63;0.73;;;;;;;19.92;58.60;97405.38;5118585;27;41766;-87
2023/10/30 13:38:34;;;;;;;0.67;0.50;;;;;;;19.77;59.08;97412.69;5118380;27;42149;-86
2023/10/30 13:41:02;;;;;;;0.93;0.60;;;;;;;19.70;59.39;97401.84;5117487;27;40309;-88
2023/10/30 13:43:29;;;;;;;0.50;0.50;;;;;;;19.56;59.68;97379.34;5116649;27;40730;-88
2023/10/30 13:45:57;;;;;;;0.80;0.53;;;;;;;19.71;59.99;97407.03;5134498;27;43068;-90
2023/10/30 13:48:27;;;;;;;1.30;0.60;;;;;;;19.57;60.69;97378.34;5116070;27;43328;-89
2023/10/30 13:50:54;;;;;;;3.17;0.70;;;;;;;19.43;59.94;97357.69;5134597;27;40016;-89
2023/10/30 13:53:22;;;;;;;0.40;0.40;;;;;;;19.58;60.73;97380.00;5116162;27;43286;-89
2023/10/30 13:55:49;;;;;;;1.43;0.70;;;;;;;19.48;60.69;97368.72;5120377;27;42932;-87
2023/10/30 13:58:17;;;;;;;0.50;0.50;;;;;;;19.47;61.01;97360.84;5120219;27;41091;-90
2023/10/30 14:00:44;;;;;;;1.77;0.93;;;;;;;19.45;61.63;97360.19;5120785;27;40040;-88
2023/10/30 14:03:12;;;;;;;1.63;0.80;;;;;;;19.52;61.84;97359.31;5119664;27;43758;-89
2023/10/30 14:05:41;;;;;;;2.03;0.70;;;;;;;19.41;62.53;97321.34;5119962;27;44067;-89
2023/10/30 14:08:08;;;;;;;1.97;1.17;;;;;;;19.37;62.24;97327.06;5119229;27;41555;-90
2023/10/30 14:10:36;;;;;;;1.27;0.77;;;;;;;19.37;62.46;97315.50;5120447;27;38700;-86
2023/10/30 14:13:03;;;;;;;0.50;0.50;;;;;;;19.42;62.54;97339.06;5119780;27;41860;-88
2023/10/30 14:15:31;;;;;;;1.00;0.60;;;;;;;19.25;62.55;97328.56;5120469;27;43370;-87
2023/10/30 14:17:58;;;;;;;2.10;0.50;;;;;;;19.26;62.72;97329.41;5120256;27;40762;-88
2023/10/30 14:20:26;;;;;;;1.27;0.70;;;;;;;19.27;63.38;97328.41;5120797;27;41715;-89
2023/10/30 14:22:55;;;;;;;1.00;0.90;;;;;;;19.21;63.54;97326.44;5120395;27;41728;-89
2023/10/30 14:25:22;;;;;;;0.90;0.70;;;;;;;19.20;63.18;97335.50;5121294;27;42896;-87
2023/10/30 14:27:50;;;;;;;0.80;0.80;;;;;;;19.28;63.47;97333.56;5137614;27;43177;-89
2023/10/30 14:30:17;;;;;;;1.80;0.87;;;;;;;19.15;64.08;97324.53;5121407;27;40691;-88
2023/10/30 14:32:45;;;;;;;1.47;0.87;;;;;;;19.15;63.95;97340.63;5137613;27;43483;-88
2023/10/30 14:35:12;;;;;;;1.03;0.70;;;;;;;18.99;63.63;97329.06;5120956;27;44110;-89
2023/10/30 14:37:40;;;;;;;1.17;0.70;;;;;;;18.93;63.99;97324.44;5119792;27;42236;-88
2023/10/30 14:40:10;;;;;;;0.90;0.90;;;;;;;18.77;64.71;97297.81;5138083;27;40837;-86
2023/10/30 14:42:38;;;;;;;0.63;0.60;;;;;;;18.80;64.31;97308.16;5118496;27;42470;-89
2023/10/30 14:45:06;;;;;;;1.80;0.80;;;;;;;18.73;65.19;97317.97;5119573;27;44135;-87
2023/10/30 14:47:33;;;;;;;1.03;0.90;;;;;;;18.64;65.25;97297.63;5135693;27;42933;-87
2023/10/30 14:50:01;;;;;;;2.27;0.80;;;;;;;18.66;65.30;97309.00;5119848;27;39051;-88
2023/10/30 14:52:29;;;;;;;2.43;0.77;;;;;;;18.61;65.54;97308.72;5137148;27;41826;-88
2023/10/30 14:54:57;;;;;;;0.93;0.90;;;;;;;18.44;66.32;97285.72;5149429;27;42718;-87
2023/10/30 14:57:26;;;;;;;0.93;0.80;;;;;;;18.37;66.23;97274.09;5143834;27;40969;-88
2023/10/30 14:59:54;;;;;;;1.00;0.90;;;;;;;18.42;67.21;97283.22;5119980;27;38930;-88
2023/10/30 15:02:22;;;;;;;0.83;0.77;;;;;;;18.22;67.40;97250.78;5136093;27;42526;-87
2023/10/30 15:04:49;;;;;;;1.50;0.90;;;;;;;18.21;67.25;97254.47;5119588;27;44233;-89
2023/10/30 15:07:17;;;;;;;1.57;1.13;;;;;;;18.24;67.51;97251.44;5118873;27;42197;-87
2023/10/30 15:09:45;;;;;;;1.23;0.80;;;;;;;18.11;67.26;97228.97;5136189;27;40938;-88
2023/10/30 15:12:12;;;;;;;1.33;0.90;;;;;;;18.07;67.49;97220.44;5118619;27;41826;-89
2023/10/30 15:14:41;;;;;;;1.10;1.00;;;;;;;18.04;67.87;97226.19;5120476;27;44406;-88
2023/10/30 15:17:09;;;;;;;1.63;1.27;;;;;;;17.88;68.00;97218.31;5119918;27;41423;-87
2023/10/30 15:19:36;;;;;;;2.37;0.83;;;;;;;17.93;68.28;97226.63;5120537;27;39873;-89
2023/10/30 15:22:05;;;;;;;1.17;0.97;;;;;;;17.95;68.31;97232.63;5135811;27;40487;-88
2023/10/30 15:24:33;;;;;;;1.10;1.00;;;;;;;17.84;68.61;97230.38;5137277;27;44888;-89
2023/10/30 15:27:00;;;;;;;1.90;0.90;;;;;;;17.81;68.68;97230.75;5136189;27;42849;-88
2023/10/30 15:29:27;;;;;;;1.47;1.30;;;;;;;17.77;68.72;97227.63;5118089;27;41339;-89
2023/10/30 15:31:56;;;;;;;0.80;0.80;;;;;;;17.72;69.17;97213.09;5117910;27;41846;-88
2023/10/30 15:34:24;;;;;;;1.63;1.13;;;;;;;17.68;69.41;97219.84;5118433;27;41703;-88
2023/10/30 15:36:51;;;;;;;1.33;1.13;;;;;;;17.64;69.38;97213.16;5118962;27;41346;-89
2023/10/30 15:39:19;;;;;;;1.87;1.10;;;;;;;17.58;69.29;97204.81;5136373;27;41617;-89
2023/10/30 15:41:46;;;;;;;1.23;1.00;;;;;;;17.64;69.51;97205.13;5118400;27;40712;-88
2023/10/30 15:44:14;;;;;;;1.20;1.10;;;;;;;17.46;69.59;97195.53;5119148;27;42203;-88
2023/10/30 15:46:41;;;;;;;0.60;0.60;;;;;;;17.51;69.57;97219.94;5136162;27;43003;-88
2023/10/30 15:49:10;;;;;;;1.13;1.00;;;;;;;17.45;69.70;97212.59;5119156;27;41568;-89
2023/10/30 15:51:38;;;;;;;1.40;1.17;;;;;;;17.38;69.57;97218.84;5118790;27;40525;-88
2023/10/30 15:54:08;;;;;;;1.17;1.00;;;;;;;17.27;69.68;97212.06;5119381;27;41964;-88
2023/10/30 15:56:35;;;;;;;2.23;1.00;;;;;;;17.23;69.63;97213.44;5118803;27;42383;-88
2023/10/30 15:59:03;;;;;;;2.00;1.10;;;;;;;17.14;70.33;97195.78;5118780;27;38357;-88
2023/10/30 16:01:30;;;;;;;1.77;1.17;;;;;;;17.16;70.24;97209.81;5118843;27;41913;-88
2023/10/30 16:03:58;;;;;;;1.80;0.90;;;;;;;17.04;70.32;97195.19;5118801;27;43089;-88
2023/10/30 16:06:28;;;;;;;2.43;1.13;;;;;;;17.09;70.38;97211.50;5118201;27;42083;-87
2023/10/30 16:08:55;;;;;;;1.20;0.90;;;;;;;16.91;70.65;97178.88;5119288;27;38912;-88
2023/10/30 16:11:23;;;;;;;0.90;0.80;;;;;;;16.88;70.53;97172.88;5154316;27;41686;-87
2023/10/30 16:13:50;;;;;;;2.10;1.23;;;;;;;16.84;70.90;97174.22;5120034;27;42145;-87
2023/10/30 16:16:18;;;;;;;1.60;1.20;;;;;;;16.72;71.06;97159.59;5119111;27;40771;-88
2023/10/30 16:18:46;;;;;;;1.37;1.07;;;;;;;16.85;71.31;97175.91;5137537;27;38979;-87
2023/10/30 16:21:14;;;;;;;2.20;1.20;;;;;;;16.81;71.27;97163.06;5136578;27;42766;-87
2023/10/30 16:23:42;;;;;;;2.00;1.40;;;;;;;16.67;71.79;97150.47;5136275;27;42828;-86
2023/10/30 16:26:10;;;;;;;1.87;1.63;;;;;;;16.63;71.75;97147.28;5118269;27;43628;-88
2023/10/30 16:28:37;;;;;;;2.17;1.57;;;;;;;16.66;72.95;97144.28;5130825;27;39862;-87
2023/10/30 16:31:05;;;;;;;1.50;1.40;;;;;;;16.60;73.48;97134.25;5137284;27;41550;-87
2023/10/30 16:33:33;;;;;;;2.50;1.80;;;;;;;16.47;74.12;97132.13;5119376;27;44471;-87
2023/10/30 16:36:04;;;;;;;1.90;1.50;;;;;;;16.50;74.54;97145.16;5119634;27;42193;-87
2023/10/30 16:38:31;;;;;;;1.20;1.10;;;;;;;16.39;75.39;97123.34;5135280;27;39728;-87
2023/10/30 16:41:00;;;;;;;1.10;1.00;;;;;;;16.45;75.30;97131.47;5135722;27;40558;-86
2023/10/30 16:43:28;;;;;;;1.30;1.03;;;;;;;16.42;75.26;97131.84;5135043;27;42727;-86
2023/10/30 16:45:55;;;;;;;1.73;1.37;;;;;;;16.41;76.09;97140.03;5118216;27;42160;-87
2023/10/30 16:48:24;;;;;;;1.20;1.10;;;;;;;16.38;75.42;97135.03;5118320;27;39098;-87
2023/10/30 16:50:52;;;;;;;2.23;1.00;;;;;;;16.28;75.20;97113.88;5118372;27;40883;-87
2023/10/30 16:53:20;;;;;;;2.50;1.10;;;;;;;16.17;75.67;97091.06;5117870;27;43656;-87
2023/10/30 16:55:49;;;;;;;1.50;1.10;;;;;;;16.34;75.57;97123.84;5118645;27;42286;-85
2023/10/30 16:58:18;;;;;;;1.83;1.40;;;;;;;16.32;75.72;97141.88;5118221;27;40191;-86
2023/10/30 17:00:45;;;;;;;1.70;1.40;;;;;;;16.18;75.55;97123.94;5118064;27;40884;-88
2023/10/30 17:03:13;;;;;;;1.17;1.07;;;;;;;16.21;75.37;97142.25;5117904;27;44192;-87
2023/10/30 17:05:41;;;;;;;1.80;1.30;;;;;;;16.17;75.39;97144.47;5135112;27;41392;-87
2023/10/30 17:08:08;;;;;;;1.53;1.37;;;;;;;16.27;76.06;97154.09;5134941;27;40735;-88
2023/10/30 17:10:36;;;;;;;1.47;1.37;;;;;;;16.14;75.85;97128.78;5117599;27;42022;-87
2023/10/30 17:13:07;;;;;;;4.13;1.83;;;;;;;16.12;75.86;97128.13;5118741;27;43627;-86
2023/10/30 17:15:36;;;;;;;2.37;1.77;;;;;;;16.20;75.85;97143.28;5119159;27;42788;-87
2023/10/30 17:18:05;;;;;;;2.00;1.80;;;;;;;16.15;76.43;97135.78;5119160;27;39965;-87
2023/10/30 17:20:32;;;;;;;3.30;1.70;;;;;;;16.01;76.42;97117.81;5119070;27;43096;-87
2023/10/30 17:23:00;;;;;;;2.37;1.77;;;;;;;16.07;76.80;97141.16;5118857;27;43637;-87
2023/10/30 17:25:27;;;;;;;3.30;2.17;;;;;;;16.02;76.68;97127.50;5154807;27;42459;-87
2023/10/30 17:27:55;;;;;;;2.33;1.80;;;;;;;15.94;77.12;97114.19;5136057;27;39995;-87
2023/10/30 17:30:22;;;;;;;2.37;2.10;;;;;;;15.86;77.77;97114.19;5130879;27;43381;-87
2023/10/30 17:32:51;;;;;;;2.70;2.30;;;;;;;15.80;77.78;97109.56;5130404;27;43511;-86
2023/10/30 17:35:19;;;;;;;2.00;1.90;;;;;;;15.76;77.56;97108.22;5148013;27;41017;-87
2023/10/30 17:37:46;;;;;;;2.60;2.13;;;;;;;15.78;77.78;97119.56;5130680;27;41564;-86
2023/10/30 17:40:14;;;;;;;3.13;1.90;;;;;;;15.77;77.79;97109.88;5148047;27;43368;-87
2023/10/30 17:42:41;;;;;;;2.93;2.00;;;;;;;15.74;77.93;97110.22;5146378;27;42969;-87
2023/10/30 17:45:10;;;;;;;2.87;2.30;;;;;;;15.62;78.30;97100.91;5121308;27;41139;-87
2023/10/30 17:47:37;;;;;;;3.57;2.33;;;;;;;15.70;78.26;97117.72;5130596;27;38998;-86
2023/10/30 17:50:07;;;;;;;2.30;2.10;;;;;;;15.75;78.34;97128.72;5136438;27;41977;-87
2023/10/30 17:52:35;;;;;;;2.93;2.17;;;;;;;15.77;78.13;97120.56;5120665;27;43134;-87
2023/10/30 17:55:02;;;;;;;3.07;2.53;;;;;;;15.68;79.33;97124.25;5121007;27;40749;-88
2023/10/30 17:57:31;;;;;;;3.40;2.90;;;;;;;15.62;79.22;97120.41;5120661;27;40533;-86
2023/10/30 17:59:58;;;;;;;3.37;2.57;;;;;;;15.72;79.21;97144.25;5120669;27;40685;-87
2023/10/30 18:02:26;;;;;;;3.40;2.50;;;;;;;15.62;79.53;97132.94;5120693;27;42040;-87
2023/10/30 18:04:53;;;;;;;2.57;2.20;;;;;;;15.61;79.49;97149.94;5138235;27;42248;-87
2023/10/30 18:07:22;;;;;;;3.20;2.73;;;;;;;15.63;79.65;97151.44;5119936;27;38869;-86
2023/10/30 18:09:50;;;;;;;2.60;2.13;;;;;;;15.53;79.55;97139.25;5137933;27;40884;-86
2023/10/30 18:12:18;;;;;;;3.07;2.47;;;;;;;15.47;80.03;97132.75;5121137;27;43857;-87
2023/10/30 18:14:45;;;;;;;4.10;2.80;;;;;;;15.40;80.69;97129.94;5139124;27;41126;-86
2023/10/30 18:17:14;;;;;;;2.70;2.30;;;;;;;15.38;80.93;97126.59;5139131;27;38924;-87
2023/10/30 18:19:42;;;;;;;2.87;2.27;;;;;;;15.36;80.78;97123.25;5121874;27;42433;-86
2023/10/30 18:22:10;;;;;;;2.80;2.60;;;;;;;15.41;81.14;97136.94;5121340;27;43734;-86
2023/10/30 18:24:38;;;;;;;2.60;2.40;;;;;;;15.38;81.13;97139.94;5138955;27;41930;-86
2023/10/30 18:27:06;;;;;;;3.23;2.50;;;;;;;15.25;81.35;97107.59;5138673;27;40587;-87
2023/10/30 18:29:34;;;;;;;4.43;2.60;;;;;;;15.17;82.60;97099.59;5138991;27;41893;-87
2023/10/30 18:32:01;;;;;;;3.53;2.57;;;;;;;15.19;83.54;97107.44;5121312;27;41769;-86
2023/10/30 18:34:29;;;;;;;3.37;2.47;;;;;;;15.24;83.56;97129.94;5121724;27;43679;-85
2023/10/30 18:36:56;;;;;;;4.03;2.57;;;;;;;15.13;83.69;97114.25;5138625;27;38768;-85
2023/10/30 18:39:24;;;;;;;4.70;2.77;;;;;;;15.13;83.24;97105.44;5138183;27;42989;-87
2023/10/30 18:41:53;;;;;;;3.80;2.27;;;;;;;15.09;83.35;97092.44;5119606;27;41583;-87
2023/10/30 18:44:20;;;;;;;2.37;1.93;;;;;;;15.10;83.25;97086.09;5119880;27;42365;-85
2023/10/30 18:46:47;;;;;;;3.40;2.17;;;;;;;15.12;83.55;97099.25;5120065;27;39816;-87
2023/10/30 18:49:15;;;;;;;2.53;2.13;;;;;;;15.05;83.92;97095.63;5120631;27;40484;-88
2023/10/30 18:51:42;;;;;;;2.20;2.00;;;;;;;15.11;84.21;97113.59;5137408;27;43312;-87
2023/10/30 18:54:10;;;;;;;2.53;2.30;;;;;;;15.03;83.92;97100.28;5137707;27;42955;-86
2023/10/30 18:56:37;;;;;;;2.17;1.80;;;;;;;15.09;84.28;97107.59;5119922;27;38959;-87
2023/10/30 18:59:06;;;;;;;3.43;2.33;;;;;;;14.99;84.42;97098.94;5119160;27;41324;-88
2023/10/30 19:01:34;;;;;;;2.77;1.90;;;;;;;14.97;84.65;97085.75;5119736;27;42057;-86
2023/10/30 19:04:03;;;;;;;2.70;2.17;;;;;;;14.99;84.77;97093.59;5120162;27;41385;-89
2023/10/30 19:06:31;;;;;;;2.53;2.30;;;;;;;14.93;84.45;97089.78;5136752;27;40192;-88
2023/10/30 19:08:59;;;;;;;2.73;2.47;;;;;;;14.94;84.74;97095.94;5137494;27;41397;-87
2023/10/30 19:11:26;;;;;;;3.23;2.20;;;;;;;14.94;85.20;97090.63;5119783;27;41707;-87
2023/10/30 19:13:55;;;;;;;2.80;2.17;;;;;;;14.92;85.19;97087.28;5120336;27;42171;-90
2023/10/30 19:16:24;;;;;;;2.77;2.50;;;;;;;14.93;85.35;97081.78;5120934;27;38594;-88
2023/10/30 19:18:52;;;;;;;3.30;2.20;;;;;;;15.03;84.95;97100.28;5119420;27;41657;-91
2023/10/30 19:21:19;;;;;;;2.20;2.00;;;;;;;14.83;84.92;97072.28;5120535;27;43414;-89
2023/10/30 19:23:47;;;;;;;3.00;2.47;;;;;;;14.93;84.96;97091.63;5103669;27;42556;-90
2023/10/30 19:26:14;;;;;;;2.33;1.90;;;;;;;14.94;85.13;97098.63;5120498;27;39412;-90
2023/10/30 19:28:45;;;;;;;1.93;1.73;;;;;;;14.81;85.18;97080.44;5137624;27;42746;-89
2023/10/30 19:31:12;;;;;;;2.10;1.90;;;;;;;14.85;85.23;97083.59;5120907;27;41776;-90
2023/10/30 19:33:42;;;;;;;2.73;2.03;;;;;;;14.93;85.49;97099.59;5120381;27;41749;-89
2023/10/30 19:36:10;;;;;;;4.90;2.60;;;;;;;14.86;85.53;97093.25;5120524;27;38947;-92
2023/10/30 19:38:38;;;;;;;3.43;2.50;;;;;;;14.88;86.29;97097.44;5120449;27;40961;-91
2023/10/30 19:41:05;;;;;;;3.90;2.80;;;;;;;14.92;86.43;97103.28;5119429;27;41631;-87
2023/10/30 19:43:33;;;;;;;2.97;2.77;;;;;;;14.58;86.36;97052.78;5118531;27;43837;-90
2023/10/30 19:46:01;;;;;;;3.20;2.47;;;;;;;14.65;86.33;97048.44;5119539;27;39734;-91
2023/10/30 19:48:28;;;;;;;2.73;2.37;;;;;;;14.82;86.85;97081.28;5119182;27;41671;-88
2023/10/30 19:50:57;;;;;;;3.03;2.23;;;;;;;14.89;87.03;97092.94;5118163;27;43271;-88
2023/10/30 19:53:25;;;;;;;3.00;2.80;;;;;;;14.79;86.76;97076.28;5118351;27;43729;-87
2023/10/30 19:55:53;;;;;;;4.67;2.63;;;;;;;14.82;87.17;97070.63;5119058;27;40513;-87
2023/10/30 19:58:21;;;;;;;2.77;2.30;;;;;;;14.85;87.20;97070.28;5118483;27;40906;-88
2023/10/30 20:00:49;;;;;;;3.00;2.20;;;;;;;14.67;87.24;97036.63;5118900;27;41959;-88
2023/10/30 20:03:16;;;;;;;3.67;2.80;;;;;;;14.84;87.47;97063.28;5118679;27;42580;-86
2023/10/30 20:05:45;;;;;;;3.00;2.70;;;;;;;14.72;87.91;97044.13;5101485;27;40205;-90
2023/10/30 20:08:14;;;;;;;3.83;2.93;;;;;;;14.77;88.33;97057.78;5118815;27;40742;-88
2023/10/30 20:10:42;;;;;;;3.47;2.20;;;;;;;14.68;88.22;97043.63;5118622;27;43130;-89
2023/10/30 20:13:09;;;;;;;3.10;2.80;;;;;;;14.76;88.60;97047.28;5119055;27;42172;-87
2023/10/30 20:15:37;;;;;;;3.37;2.50;;;;;;;14.68;88.79;97038.31;5119730;27;40208;-88
2023/10/30 20:18:04;;;;;;;4.13;2.60;;;;;;;14.45;88.73;97001.84;5119248;27;40458;-85
2023/10/30 20:20:32;;;;;;;4.03;3.33;;;;;;;14.73;88.82;97041.28;5119442;27;41736;-88
2023/10/30 20:22:59;;;;;;;4.57;2.97;;;;;;;14.62;90.19;97038.97;5119270;27;42108;-87
2023/10/30 20:25:28;;;;;;;3.43;2.33;;;;;;;14.52;90.43;97022.31;5119594;27;39552;-88
2023/10/30 20:27:55;;;;;;;3.30;3.00;;;;;;;14.60;90.32;97038.28;5119029;27;42415;-88
2023/10/30 20:30:25;;;;;;;3.63;2.93;;;;;;;14.61;90.36;97042.63;5119128;27;43160;-87
2023/10/30 20:32:53;;;;;;;3.13;2.70;;;;;;;14.67;90.30;97041.97;5119529;27;42480;-88
2023/10/30 20:35:21;;;;;;;3.20;2.57;;;;;;;14.53;89.93;97013.31;5136893;27;39932;-88
2023/10/30 20:37:48;;;;;;;2.93;2.40;;;;;;;14.58;90.01;97021.66;5119369;27;40922;-88
2023/10/30 20:40:16;;;;;;;2.20;2.07;;;;;;;14.70;90.02;97035.47;5138864;27;44241;-86
2023/10/30 20:42:45;;;;;;;4.33;2.50;;;;;;;14.62;89.83;97027.47;5133689;27;42468;-87
2023/10/30 20:45:12;;;;;;;3.47;2.80;;;;;;;14.42;89.73;96995.00;5118429;27;39959;-85
2023/10/30 20:47:40;;;;;;;3.20;2.63;;;;;;;14.58;89.91;97032.31;5117992;27;42215;-86